This is the latest recevied weather packets stored in our database for station/object SM2FXT-13. If no packets are shown the sender has not sent any weather packets the latest 10 day(s).
| Time | Temp. | Humidity | Pressure | Rain* | Wind** | Luminosity | Snow |
|---|---|---|---|---|---|---|---|
| 1777533603 | 13.33° C | 71% | 1018.8 hPa | 0 mm | - | - | - |
| 1777529403 | 14.44° C | 69% | 1018.3 hPa | 0 mm | - | - | - |
| 1777527603 | 13.89° C | 71% | 1018.3 hPa | 0 mm | - | - | - |
| 1777526403 | 13.89° C | 71% | 1018 hPa | 0 mm | - | - | - |
| 1777525803 | 13.33° C | 73% | 1017.9 hPa | 0 mm | - | - | - |
| 1777520403 | 10° C | 85% | 1017.6 hPa | 0 mm | - | - | - |
| 1777516804 | 6.67° C | 96% | 1017.8 hPa | 0 mm | - | - | - |
| 1777512003 | 6.67° C | 95% | 1017.8 hPa | 0 mm | - | - | - |
| 1777509004 | 6.67° C | 97% | 1017.4 hPa | 0 mm | - | - | - |
| 1777507803 | 6.67° C | 98% | 1017.6 hPa | 0 mm | - | - | - |
| 1777503603 | 7.22° C | 96% | 1017.6 hPa | 0 mm | - | - | - |
| 1777501202 | 7.78° C | 95% | 1017.9 hPa | 0 mm | - | - | - |
| 1777489802 | 7.22° C | 95% | 1019 hPa | 0 mm | - | - | - |
| 1777488002 | 7.78° C | 90% | 1019.2 hPa | 0 mm | - | - | - |
| 1777481403 | 8.33° C | 82% | 1019.9 hPa | 0 mm | - | - | - |
| 1777479002 | 9.44° C | 77% | 1020.3 hPa | 0 mm | - | - | - |
| 1777474803 | 9.44° C | 71% | 1020.4 hPa | 0 mm | - | - | - |
| 1777471802 | 8.89° C | 73% | 1021.1 hPa | 0 mm | - | - | - |
| 1777462803 | 8.89° C | 49% | 1021.8 hPa | 0 mm | - | - | - |
| 1777456204 | 9.44° C | 44% | 1023.1 hPa | 0 mm | - | - | - |
| 1777455003 | 8.89° C | 45% | 1023.5 hPa | 0 mm | - | - | - |
| 1777454403 | 9.44° C | 43% | 1023.5 hPa | 0 mm | - | - | - |
| 1777452603 | 8.89° C | 46% | 1023.7 hPa | 0 mm | - | - | - |
| 1777447203 | 6.11° C | 57% | 1024.9 hPa | 0 mm | - | - | - |
| 1777446004 | 5.56° C | 62% | 1025 hPa | 0 mm | - | - | - |
* Rain latest hour (hover to see other rain measurements)
** Current wind speed in m/s (hover to see current wind gust speed)